NIA071 HECA-HELX
Flight info
| Callsign | NIA071 |
|---|---|
| Flight time | 0h 47m |
| Altitude | 33000 |
| Route | CVO A727 LXR |
| Aircraft | A321/M-SDE3FGHIRWY/LB1 |
Departure
| Time | 2026-04-15 11:49 |
|---|---|
| Airport | Cairo International Airport (HECA) |
Arrival
| Time | 2026-04-15 12:36 |
|---|---|
| Airport | Luxor International Airport (HELX) |
| Time | Latitude | Longitude | Altitude | Speed | Heading |
|---|---|---|---|---|---|
| 2026-04-15 11:31 | 30.12679 | 31.39471 | 214 ft | 0 kts | 139° |
| 2026-04-15 11:40 | 30.12684 | 31.39466 | 213 ft | 2 kts | 139° |
| 2026-04-15 11:41 | 30.12695 | 31.39455 | 213 ft | 2 kts | 139° |
| 2026-04-15 11:41 | 30.12707 | 31.39443 | 212 ft | 2 kts | 139° |
| 2026-04-15 11:41 | 30.12718 | 31.39432 | 211 ft | 2 kts | 139° |
| 2026-04-15 11:41 | 30.12730 | 31.39420 | 210 ft | 2 kts | 139° |
| 2026-04-15 11:42 | 30.12741 | 31.39409 | 209 ft | 2 kts | 147° |
| 2026-04-15 11:42 | 30.12755 | 31.39405 | 208 ft | 2 kts | 191° |
| 2026-04-15 11:42 | 30.12768 | 31.39412 | 208 ft | 0 kts | 225° |
| 2026-04-15 11:42 | 30.12772 | 31.39418 | 208 ft | 1 kts | 231° |
| 2026-04-15 11:43 | 30.12778 | 31.39427 | 207 ft | 0 kts | 229° |
| 2026-04-15 11:45 | 30.12762 | 31.39404 | 208 ft | 10 kts | 229° |
| 2026-04-15 11:45 | 30.12692 | 31.39310 | 207 ft | 16 kts | 229° |
| 2026-04-15 11:45 | 30.12616 | 31.39208 | 209 ft | 16 kts | 229° |
| 2026-04-15 11:45 | 30.12538 | 31.39103 | 208 ft | 18 kts | 229° |
| 2026-04-15 11:46 | 30.12448 | 31.38982 | 204 ft | 20 kts | 229° |
| 2026-04-15 11:46 | 30.12351 | 31.38850 | 202 ft | 21 kts | 229° |
| 2026-04-15 11:46 | 30.12251 | 31.38717 | 201 ft | 22 kts | 230° |
| 2026-04-15 11:46 | 30.12141 | 31.38564 | 201 ft | 27 kts | 230° |
| 2026-04-15 11:47 | 30.12018 | 31.38398 | 201 ft | 27 kts | 229° |
| 2026-04-15 11:47 | 30.11916 | 31.38265 | 201 ft | 16 kts | 229° |
| 2026-04-15 11:47 | 30.11874 | 31.38154 | 200 ft | 16 kts | 300° |
| 2026-04-15 11:47 | 30.11943 | 31.38078 | 196 ft | 15 kts | 317° |
| 2026-04-15 11:48 | 30.12016 | 31.38083 | 194 ft | 15 kts | 46° |
| 2026-04-15 11:48 | 30.12207 | 31.38339 | 195 ft | 76 kts | 49° |
| 2026-04-15 11:48 | 30.12687 | 31.38986 | 198 ft | 136 kts | 49° |
| 2026-04-15 11:48 | 30.13394 | 31.39934 | 449 ft | 161 kts | 49° |
| 2026-04-15 11:49 | 30.14109 | 31.40884 | 1076 ft | 159 kts | 46° |
| 2026-04-15 11:49 | 30.15039 | 31.41531 | 1599 ft | 160 kts | 7° |
| 2026-04-15 11:49 | 30.16119 | 31.41266 | 2001 ft | 166 kts | 336° |
| 2026-04-15 11:49 | 30.17139 | 31.40568 | 2195 ft | 179 kts | 316° |
| 2026-04-15 11:50 | 30.17602 | 31.39208 | 2371 ft | 195 kts | 267° |
| 2026-04-15 11:50 | 30.17019 | 31.37778 | 2576 ft | 209 kts | 221° |
| 2026-04-15 11:50 | 30.15652 | 31.37170 | 2799 ft | 219 kts | 177° |
| 2026-04-15 11:50 | 30.14141 | 31.37549 | 3066 ft | 229 kts | 160° |
| 2026-04-15 11:51 | 30.12585 | 31.38193 | 3327 ft | 245 kts | 158° |
| 2026-04-15 11:51 | 30.10939 | 31.38860 | 3658 ft | 261 kts | 160° |
| 2026-04-15 11:51 | 30.09153 | 31.39523 | 4001 ft | 277 kts | 161° |
| 2026-04-15 11:51 | 30.07293 | 31.40162 | 4591 ft | 284 kts | 162° |
| 2026-04-15 11:52 | 30.05415 | 31.40780 | 5303 ft | 287 kts | 163° |
| 2026-04-15 11:52 | 30.03476 | 31.41403 | 6024 ft | 290 kts | 164° |
| 2026-04-15 11:52 | 30.01528 | 31.42022 | 6748 ft | 294 kts | 164° |
| 2026-04-15 11:52 | 29.99561 | 31.42642 | 7476 ft | 297 kts | 165° |
| 2026-04-15 11:53 | 29.97557 | 31.43271 | 8197 ft | 300 kts | 165° |
| 2026-04-15 11:53 | 29.95554 | 31.43899 | 8898 ft | 303 kts | 165° |
| 2026-04-15 11:53 | 29.93522 | 31.44535 | 9589 ft | 306 kts | 165° |
| 2026-04-15 11:53 | 29.91475 | 31.45176 | 10256 ft | 309 kts | 166° |
| 2026-04-15 11:54 | 29.89343 | 31.45841 | 10645 ft | 323 kts | 166° |
| 2026-04-15 11:54 | 29.87137 | 31.46525 | 10934 ft | 339 kts | 166° |
| 2026-04-15 11:54 | 29.84817 | 31.47243 | 11220 ft | 355 kts | 166° |
| 2026-04-15 11:54 | 29.82365 | 31.48005 | 11500 ft | 371 kts | 166° |
| 2026-04-15 11:55 | 29.79831 | 31.48794 | 11772 ft | 386 kts | 166° |
| 2026-04-15 11:55 | 29.77215 | 31.49609 | 12169 ft | 397 kts | 166° |
| 2026-04-15 11:55 | 29.74550 | 31.50440 | 12793 ft | 401 kts | 166° |
| 2026-04-15 11:55 | 29.71859 | 31.51280 | 13419 ft | 404 kts | 166° |
| 2026-04-15 11:56 | 29.69116 | 31.52140 | 14009 ft | 409 kts | 166° |
| 2026-04-15 11:56 | 29.66382 | 31.53027 | 14588 ft | 413 kts | 166° |
| 2026-04-15 11:56 | 29.63634 | 31.53928 | 15158 ft | 417 kts | 166° |
| 2026-04-15 11:56 | 29.60814 | 31.54854 | 15728 ft | 421 kts | 166° |
| 2026-04-15 11:57 | 29.58025 | 31.55769 | 16281 ft | 425 kts | 167° |
| 2026-04-15 11:57 | 29.52285 | 31.57648 | 17380 ft | 433 kts | 167° |
| 2026-04-15 11:57 | 29.49383 | 31.58597 | 17918 ft | 436 kts | 167° |
| 2026-04-15 11:58 | 29.46484 | 31.59543 | 18441 ft | 440 kts | 167° |
| 2026-04-15 11:58 | 29.43538 | 31.60504 | 18962 ft | 444 kts | 168° |
| 2026-04-15 11:58 | 29.40549 | 31.61478 | 19476 ft | 447 kts | 168° |
| 2026-04-15 11:58 | 29.37590 | 31.62443 | 19973 ft | 450 kts | 168° |
| 2026-04-15 11:59 | 29.34562 | 31.63428 | 20470 ft | 453 kts | 168° |
| 2026-04-15 11:59 | 29.31514 | 31.64420 | 20945 ft | 457 kts | 168° |
| 2026-04-15 11:59 | 29.28467 | 31.65413 | 21404 ft | 460 kts | 169° |
| 2026-04-15 11:59 | 29.25380 | 31.66431 | 21860 ft | 462 kts | 169° |
| 2026-04-15 12:00 | 29.22324 | 31.67437 | 22293 ft | 465 kts | 169° |
| 2026-04-15 12:00 | 29.19199 | 31.68460 | 22712 ft | 468 kts | 169° |
| 2026-04-15 12:00 | 29.16083 | 31.69474 | 23123 ft | 470 kts | 169° |
| 2026-04-15 12:00 | 29.12918 | 31.70501 | 23536 ft | 473 kts | 170° |
| 2026-04-15 12:01 | 29.09775 | 31.71517 | 23934 ft | 475 kts | 170° |
| 2026-04-15 12:01 | 29.06615 | 31.72536 | 24390 ft | 475 kts | 170° |
| 2026-04-15 12:01 | 29.03438 | 31.73561 | 25017 ft | 471 kts | 170° |
| 2026-04-15 12:01 | 29.00317 | 31.74571 | 25652 ft | 466 kts | 170° |
| 2026-04-15 12:02 | 28.97215 | 31.75573 | 26215 ft | 463 kts | 169° |
| 2026-04-15 12:02 | 28.94115 | 31.76568 | 26732 ft | 460 kts | 170° |
| 2026-04-15 12:02 | 28.91066 | 31.77544 | 27179 ft | 459 kts | 170° |
| 2026-04-15 12:02 | 28.88001 | 31.78521 | 27591 ft | 458 kts | 170° |
| 2026-04-15 12:03 | 28.84940 | 31.79492 | 27994 ft | 458 kts | 170° |
| 2026-04-15 12:03 | 28.81871 | 31.80465 | 28397 ft | 457 kts | 171° |
| 2026-04-15 12:03 | 28.78810 | 31.81435 | 28789 ft | 456 kts | 171° |
| 2026-04-15 12:03 | 28.75783 | 31.82395 | 29164 ft | 455 kts | 171° |
| 2026-04-15 12:04 | 28.72765 | 31.83351 | 29521 ft | 454 kts | 171° |
| 2026-04-15 12:04 | 28.69738 | 31.84309 | 29874 ft | 453 kts | 171° |
| 2026-04-15 12:04 | 28.66692 | 31.85274 | 30222 ft | 452 kts | 171° |
| 2026-04-15 12:04 | 28.63682 | 31.86226 | 30557 ft | 451 kts | 171° |
| 2026-04-15 12:05 | 28.60689 | 31.87172 | 30878 ft | 451 kts | 171° |
| 2026-04-15 12:05 | 28.57677 | 31.88124 | 31174 ft | 450 kts | 171° |
| 2026-04-15 12:05 | 28.54654 | 31.89078 | 31426 ft | 451 kts | 171° |
| 2026-04-15 12:05 | 28.51654 | 31.90024 | 31657 ft | 452 kts | 172° |
| 2026-04-15 12:06 | 28.48632 | 31.90976 | 31891 ft | 453 kts | 172° |
| 2026-04-15 12:06 | 28.45559 | 31.91938 | 32146 ft | 453 kts | 167° |
| 2026-04-15 12:06 | 28.42560 | 31.92838 | 32653 ft | 446 kts | 165° |
| 2026-04-15 12:06 | 28.39589 | 31.93776 | 32913 ft | 444 kts | 164° |
| 2026-04-15 12:07 | 28.36636 | 31.94721 | 32946 ft | 444 kts | 164° |
| 2026-04-15 12:07 | 28.30708 | 31.96608 | 32964 ft | 444 kts | 164° |
| 2026-04-15 12:08 | 28.24762 | 31.98484 | 32969 ft | 444 kts | 164° |
| 2026-04-15 12:08 | 28.18816 | 32.00351 | 32971 ft | 444 kts | 165° |
| 2026-04-15 12:09 | 28.12892 | 32.02206 | 32971 ft | 444 kts | 165° |
| 2026-04-15 12:09 | 28.06947 | 32.04065 | 32972 ft | 444 kts | 165° |
| 2026-04-15 12:10 | 28.01022 | 32.05930 | 32972 ft | 444 kts | 164° |
| 2026-04-15 12:10 | 27.95125 | 32.07827 | 32971 ft | 444 kts | 164° |
| 2026-04-15 12:11 | 27.89179 | 32.09736 | 32972 ft | 444 kts | 164° |
| 2026-04-15 12:11 | 27.83282 | 32.11613 | 32971 ft | 444 kts | 164° |
| 2026-04-15 12:12 | 27.77330 | 32.13508 | 32972 ft | 444 kts | 164° |
| 2026-04-15 12:12 | 27.71412 | 32.15393 | 32972 ft | 444 kts | 164° |
| 2026-04-15 12:13 | 27.65480 | 32.17281 | 32972 ft | 444 kts | 164° |
| 2026-04-15 12:13 | 27.59555 | 32.19165 | 32957 ft | 444 kts | 164° |
| 2026-04-15 12:13 | 27.56601 | 32.20103 | 32700 ft | 444 kts | 164° |
| 2026-04-15 12:14 | 27.53644 | 32.21042 | 32448 ft | 440 kts | 164° |
| 2026-04-15 12:14 | 27.50744 | 32.21962 | 32201 ft | 438 kts | 164° |
| 2026-04-15 12:14 | 27.47800 | 32.22895 | 31948 ft | 436 kts | 164° |
| 2026-04-15 12:14 | 27.44918 | 32.23809 | 31701 ft | 434 kts | 164° |
| 2026-04-15 12:15 | 27.42001 | 32.24733 | 31450 ft | 435 kts | 164° |
| 2026-04-15 12:15 | 27.39089 | 32.25654 | 31158 ft | 436 kts | 164° |
| 2026-04-15 12:15 | 27.36210 | 32.26564 | 30768 ft | 437 kts | 164° |
| 2026-04-15 12:15 | 27.33275 | 32.27492 | 30163 ft | 439 kts | 164° |
| 2026-04-15 12:16 | 27.30337 | 32.28421 | 29472 ft | 440 kts | 164° |
| 2026-04-15 12:16 | 27.27402 | 32.29404 | 28651 ft | 444 kts | 162° |
| 2026-04-15 12:16 | 27.24484 | 32.30437 | 27744 ft | 450 kts | 162° |
| 2026-04-15 12:16 | 27.21475 | 32.31514 | 26777 ft | 456 kts | 162° |
| 2026-04-15 12:17 | 27.18470 | 32.32587 | 25861 ft | 459 kts | 162° |
| 2026-04-15 12:17 | 27.15460 | 32.33657 | 25189 ft | 456 kts | 162° |
| 2026-04-15 12:17 | 27.12452 | 32.34722 | 24670 ft | 450 kts | 162° |
| 2026-04-15 12:17 | 27.09515 | 32.35759 | 24131 ft | 445 kts | 162° |
| 2026-04-15 12:18 | 27.06567 | 32.36799 | 23581 ft | 440 kts | 162° |
| 2026-04-15 12:18 | 27.03682 | 32.37815 | 23037 ft | 436 kts | 162° |
| 2026-04-15 12:18 | 27.00791 | 32.38831 | 22491 ft | 432 kts | 162° |
| 2026-04-15 12:18 | 26.97959 | 32.39827 | 21951 ft | 429 kts | 162° |
| 2026-04-15 12:19 | 26.95127 | 32.40821 | 21409 ft | 425 kts | 162° |
| 2026-04-15 12:19 | 26.92351 | 32.41796 | 20875 ft | 422 kts | 162° |
| 2026-04-15 12:19 | 26.89549 | 32.42779 | 20333 ft | 418 kts | 162° |
| 2026-04-15 12:19 | 26.86782 | 32.43745 | 19796 ft | 415 kts | 162° |
| 2026-04-15 12:20 | 26.84038 | 32.44702 | 19260 ft | 412 kts | 162° |
| 2026-04-15 12:20 | 26.81354 | 32.45638 | 18735 ft | 408 kts | 162° |
| 2026-04-15 12:20 | 26.78664 | 32.46578 | 18204 ft | 405 kts | 162° |
| 2026-04-15 12:20 | 26.75995 | 32.47510 | 17677 ft | 402 kts | 162° |
| 2026-04-15 12:21 | 26.73324 | 32.48444 | 17145 ft | 399 kts | 162° |
| 2026-04-15 12:21 | 26.70693 | 32.49363 | 16621 ft | 396 kts | 162° |
| 2026-04-15 12:21 | 26.68097 | 32.50270 | 16144 ft | 396 kts | 162° |
| 2026-04-15 12:21 | 26.65475 | 32.51186 | 15598 ft | 396 kts | 162° |
| 2026-04-15 12:22 | 26.63098 | 32.52016 | 15097 ft | 393 kts | 162° |
| 2026-04-15 12:22 | 26.60534 | 32.52910 | 14572 ft | 389 kts | 162° |
| 2026-04-15 12:22 | 26.57944 | 32.53813 | 14043 ft | 386 kts | 162° |
| 2026-04-15 12:22 | 26.55411 | 32.54697 | 13524 ft | 383 kts | 162° |
| 2026-04-15 12:23 | 26.52892 | 32.55574 | 13008 ft | 379 kts | 162° |
| 2026-04-15 12:23 | 26.50404 | 32.56441 | 12495 ft | 376 kts | 162° |
| 2026-04-15 12:23 | 26.47911 | 32.57309 | 11981 ft | 373 kts | 162° |
| 2026-04-15 12:23 | 26.45444 | 32.58167 | 11469 ft | 370 kts | 162° |
| 2026-04-15 12:24 | 26.43012 | 32.59013 | 10964 ft | 367 kts | 162° |
| 2026-04-15 12:24 | 26.40622 | 32.59844 | 10722 ft | 355 kts | 162° |
| 2026-04-15 12:24 | 26.38296 | 32.60652 | 10567 ft | 341 kts | 162° |
| 2026-04-15 12:24 | 26.36088 | 32.61419 | 10418 ft | 328 kts | 162° |
| 2026-04-15 12:25 | 26.33948 | 32.62162 | 10284 ft | 316 kts | 162° |
| 2026-04-15 12:25 | 26.31914 | 32.62868 | 10170 ft | 303 kts | 162° |
| 2026-04-15 12:25 | 26.29929 | 32.63556 | 10068 ft | 291 kts | 162° |
| 2026-04-15 12:25 | 26.28055 | 32.64206 | 9891 ft | 283 kts | 162° |
| 2026-04-15 12:26 | 26.26177 | 32.64856 | 9515 ft | 283 kts | 162° |
| 2026-04-15 12:26 | 26.24228 | 32.65538 | 9161 ft | 281 kts | 162° |
| 2026-04-15 12:26 | 26.22378 | 32.66192 | 8832 ft | 279 kts | 162° |
| 2026-04-15 12:26 | 26.20518 | 32.66847 | 8501 ft | 278 kts | 162° |
| 2026-04-15 12:27 | 26.18687 | 32.67488 | 8177 ft | 276 kts | 162° |
| 2026-04-15 12:27 | 26.16870 | 32.68121 | 7855 ft | 275 kts | 163° |
| 2026-04-15 12:27 | 26.15072 | 32.68745 | 7536 ft | 273 kts | 163° |
| 2026-04-15 12:27 | 26.13268 | 32.69370 | 7216 ft | 271 kts | 163° |
| 2026-04-15 12:28 | 26.11461 | 32.69996 | 6896 ft | 270 kts | 163° |
| 2026-04-15 12:28 | 26.09687 | 32.70609 | 6581 ft | 268 kts | 163° |
| 2026-04-15 12:28 | 26.07896 | 32.71227 | 6263 ft | 267 kts | 163° |
| 2026-04-15 12:28 | 26.06127 | 32.71838 | 5950 ft | 266 kts | 163° |
| 2026-04-15 12:29 | 26.04375 | 32.72443 | 5638 ft | 264 kts | 163° |
| 2026-04-15 12:29 | 26.02623 | 32.73047 | 5327 ft | 263 kts | 163° |
| 2026-04-15 12:29 | 26.00887 | 32.73646 | 5019 ft | 262 kts | 163° |
| 2026-04-15 12:29 | 25.99162 | 32.74240 | 4713 ft | 260 kts | 163° |
| 2026-04-15 12:30 | 25.97456 | 32.74828 | 4417 ft | 259 kts | 163° |
| 2026-04-15 12:30 | 25.95776 | 32.75407 | 4354 ft | 247 kts | 163° |
| 2026-04-15 12:30 | 25.94156 | 32.75962 | 4129 ft | 242 kts | 163° |
| 2026-04-15 12:30 | 25.92568 | 32.76505 | 3991 ft | 233 kts | 163° |
| 2026-04-15 12:31 | 25.91061 | 32.77021 | 3875 ft | 223 kts | 163° |
| 2026-04-15 12:31 | 25.89617 | 32.77517 | 3813 ft | 211 kts | 163° |
| 2026-04-15 12:31 | 25.88252 | 32.77983 | 3756 ft | 205 kts | 163° |
| 2026-04-15 12:31 | 25.86884 | 32.78449 | 3708 ft | 206 kts | 163° |
| 2026-04-15 12:32 | 25.85494 | 32.78795 | 3633 ft | 205 kts | 181° |
| 2026-04-15 12:32 | 25.84142 | 32.78551 | 3565 ft | 191 kts | 197° |
| 2026-04-15 12:32 | 25.82913 | 32.78040 | 3356 ft | 186 kts | 203° |
| 2026-04-15 12:32 | 25.81745 | 32.77468 | 3102 ft | 181 kts | 204° |
| 2026-04-15 12:33 | 25.80619 | 32.76918 | 2858 ft | 175 kts | 203° |
| 2026-04-15 12:33 | 25.79526 | 32.76399 | 2621 ft | 168 kts | 203° |
| 2026-04-15 12:33 | 25.78467 | 32.75906 | 2398 ft | 164 kts | 202° |
| 2026-04-15 12:33 | 25.77426 | 32.75427 | 2208 ft | 156 kts | 202° |
| 2026-04-15 12:34 | 25.76464 | 32.74984 | 1974 ft | 144 kts | 202° |
| 2026-04-15 12:34 | 25.75540 | 32.74559 | 1799 ft | 148 kts | 202° |
| 2026-04-15 12:34 | 25.74582 | 32.74117 | 1612 ft | 149 kts | 202° |
| 2026-04-15 12:34 | 25.73624 | 32.73672 | 1414 ft | 149 kts | 202° |
| 2026-04-15 12:35 | 25.72668 | 32.73232 | 1217 ft | 148 kts | 202° |
| 2026-04-15 12:35 | 25.71722 | 32.72793 | 1024 ft | 148 kts | 203° |
| 2026-04-15 12:35 | 25.70778 | 32.72353 | 831 ft | 147 kts | 203° |
| 2026-04-15 12:35 | 25.69828 | 32.71913 | 636 ft | 147 kts | 202° |
| 2026-04-15 12:36 | 25.68893 | 32.71479 | 438 ft | 147 kts | 203° |
| 2026-04-15 12:36 | 25.67958 | 32.71041 | 289 ft | 139 kts | 201° |
| 2026-04-15 12:36 | 25.67330 | 32.70752 | 291 ft | 59 kts | 203° |
| 2026-04-15 12:36 | 25.66993 | 32.70591 | 295 ft | 33 kts | 221° |
| 2026-04-15 12:37 | 25.67001 | 32.70444 | 295 ft | 9 kts | 253° |
| 2026-04-15 12:37 | 25.66994 | 32.70370 | 294 ft | 10 kts | 293° |
| 2026-04-15 12:37 | 25.67023 | 32.70303 | 293 ft | 7 kts | 297° |
| 2026-04-15 12:37 | 25.67070 | 32.70289 | 292 ft | 9 kts | 31° |
| 2026-04-15 12:38 | 25.67154 | 32.70341 | 291 ft | 17 kts | 28° |
| 2026-04-15 12:38 | 25.67222 | 32.70380 | 292 ft | 6 kts | 21° |
| 2026-04-15 12:38 | 25.67234 | 32.70369 | 292 ft | 3 kts | 297° |
| 2026-04-15 12:38 | 25.67251 | 32.70334 | 292 ft | 3 kts | 297° |
| 2026-04-15 12:39 | 25.67253 | 32.70329 | 291 ft | 1 kts | 297° |
| 2026-04-15 12:39 | 25.67254 | 32.70328 | 291 ft | 0 kts | 297° |